sensor_id;sensor_type;location;lat;lon;timestamp;temperature;humidity
17307;DHT22;8771;48.048;7.682;2023-06-22T00:00:19;23.70;55.30
17307;DHT22;8771;48.048;7.682;2023-06-22T00:05:22;23.80;55.20
17307;DHT22;8771;48.048;7.682;2023-06-22T00:10:24;23.80;55.20
17307;DHT22;8771;48.048;7.682;2023-06-22T00:15:27;23.70;55.10
17307;DHT22;8771;48.048;7.682;2023-06-22T00:20:29;23.70;55.20
17307;DHT22;8771;48.048;7.682;2023-06-22T00:25:31;23.70;55.30
17307;DHT22;8771;48.048;7.682;2023-06-22T00:30:35;23.60;55.40
17307;DHT22;8771;48.048;7.682;2023-06-22T00:35:37;23.50;55.60
17307;DHT22;8771;48.048;7.682;2023-06-22T00:40:41;23.40;55.60
17307;DHT22;8771;48.048;7.682;2023-06-22T00:45:45;23.30;55.70
17307;DHT22;8771;48.048;7.682;2023-06-22T00:50:47;23.20;55.80
17307;DHT22;8771;48.048;7.682;2023-06-22T00:55:51;23.20;55.70
17307;DHT22;8771;48.048;7.682;2023-06-22T01:00:54;23.20;55.80
17307;DHT22;8771;48.048;7.682;2023-06-22T01:05:59;23.20;55.80
17307;DHT22;8771;48.048;7.682;2023-06-22T01:11:08;23.10;55.80
17307;DHT22;8771;48.048;7.682;2023-06-22T01:16:16;23.10;55.90
17307;DHT22;8771;48.048;7.682;2023-06-22T01:21:22;23.10;55.90
17307;DHT22;8771;48.048;7.682;2023-06-22T01:26:31;23.10;56.00
17307;DHT22;8771;48.048;7.682;2023-06-22T01:31:38;23.00;56.00
17307;DHT22;8771;48.048;7.682;2023-06-22T01:36:43;22.90;56.10
17307;DHT22;8771;48.048;7.682;2023-06-22T01:41:45;22.90;56.70
17307;DHT22;8771;48.048;7.682;2023-06-22T01:46:50;22.80;56.20
17307;DHT22;8771;48.048;7.682;2023-06-22T01:51:52;22.80;56.30
17307;DHT22;8771;48.048;7.682;2023-06-22T01:56:57;22.60;56.30
17307;DHT22;8771;48.048;7.682;2023-06-22T02:02:04;22.60;56.40
17307;DHT22;8771;48.048;7.682;2023-06-22T02:07:13;22.60;56.40
17307;DHT22;8771;48.048;7.682;2023-06-22T02:12:18;22.60;56.40
17307;DHT22;8771;48.048;7.682;2023-06-22T02:17:21;22.60;56.40
17307;DHT22;8771;48.048;7.682;2023-06-22T02:22:23;22.60;56.40
17307;DHT22;8771;48.048;7.682;2023-06-22T02:27:25;22.60;56.40
17307;DHT22;8771;48.048;7.682;2023-06-22T02:32:28;22.60;56.30
17307;DHT22;8771;48.048;7.682;2023-06-22T02:37:31;22.60;56.30
17307;DHT22;8771;48.048;7.682;2023-06-22T02:42:32;22.50;56.40
17307;DHT22;8771;48.048;7.682;2023-06-22T02:47:36;22.50;56.50
17307;DHT22;8771;48.048;7.682;2023-06-22T02:52:38;22.40;56.50
17307;DHT22;8771;48.048;7.682;2023-06-22T02:57:40;22.40;56.60
17307;DHT22;8771;48.048;7.682;2023-06-22T03:02:46;22.40;56.70
17307;DHT22;8771;48.048;7.682;2023-06-22T03:07:49;22.20;56.70
17307;DHT22;8771;48.048;7.682;2023-06-22T03:12:51;22.20;56.70
17307;DHT22;8771;48.048;7.682;2023-06-22T03:17:55;22.20;56.80
17307;DHT22;8771;48.048;7.682;2023-06-22T03:22:57;22.20;56.80
17307;DHT22;8771;48.048;7.682;2023-06-22T03:27:58;22.10;56.80
17307;DHT22;8771;48.048;7.682;2023-06-22T03:33:02;22.10;56.80
17307;DHT22;8771;48.048;7.682;2023-06-22T03:38:04;22.10;56.90
17307;DHT22;8771;48.048;7.682;2023-06-22T03:43:06;22.10;56.90
17307;DHT22;8771;48.048;7.682;2023-06-22T03:48:09;22.00;56.90
17307;DHT22;8771;48.048;7.682;2023-06-22T03:53:11;22.00;56.90
17307;DHT22;8771;48.048;7.682;2023-06-22T03:58:13;22.00;56.90
17307;DHT22;8771;48.048;7.682;2023-06-22T04:03:17;22.00;57.00
17307;DHT22;8771;48.048;7.682;2023-06-22T04:08:20;22.00;57.00
17307;DHT22;8771;48.048;7.682;2023-06-22T04:13:22;22.00;57.00
17307;DHT22;8771;48.048;7.682;2023-06-22T04:18:25;22.00;56.90
17307;DHT22;8771;48.048;7.682;2023-06-22T04:23:27;22.10;56.90
17307;DHT22;8771;48.048;7.682;2023-06-22T04:28:29;22.10;56.80
17307;DHT22;8771;48.048;7.682;2023-06-22T04:33:36;22.20;56.90
17307;DHT22;8771;48.048;7.682;2023-06-22T04:38:41;22.20;56.80
17307;DHT22;8771;48.048;7.682;2023-06-22T04:43:44;22.30;56.90
17307;DHT22;8771;48.048;7.682;2023-06-22T04:48:56;22.30;56.80
17307;DHT22;8771;48.048;7.682;2023-06-22T04:53:57;22.50;56.80
17307;DHT22;8771;48.048;7.682;2023-06-22T04:59:02;22.60;56.60
17307;DHT22;8771;48.048;7.682;2023-06-22T05:04:06;22.80;56.50
17307;DHT22;8771;48.048;7.682;2023-06-22T05:09:08;23.00;56.30
17307;DHT22;8771;48.048;7.682;2023-06-22T05:14:10;23.20;56.10
17307;DHT22;8771;48.048;7.682;2023-06-22T05:19:14;23.40;55.90
17307;DHT22;8771;48.048;7.682;2023-06-22T05:24:16;23.60;55.80
17307;DHT22;8771;48.048;7.682;2023-06-22T05:29:18;23.70;55.70
17307;DHT22;8771;48.048;7.682;2023-06-22T05:34:21;23.90;55.60
17307;DHT22;8771;48.048;7.682;2023-06-22T05:39:24;24.10;55.50
17307;DHT22;8771;48.048;7.682;2023-06-22T05:44:26;24.20;55.50
17307;DHT22;8771;48.048;7.682;2023-06-22T05:49:29;24.40;55.40
17307;DHT22;8771;48.048;7.682;2023-06-22T05:54:33;24.60;55.40
17307;DHT22;8771;48.048;7.682;2023-06-22T05:59:36;24.70;55.30
17307;DHT22;8771;48.048;7.682;2023-06-22T06:04:39;24.90;55.20
17307;DHT22;8771;48.048;7.682;2023-06-22T06:09:41;25.00;55.10
17307;DHT22;8771;48.048;7.682;2023-06-22T06:14:43;25.30;55.00
17307;DHT22;8771;48.048;7.682;2023-06-22T06:19:46;25.50;54.90
17307;DHT22;8771;48.048;7.682;2023-06-22T06:24:48;25.80;55.40
17307;DHT22;8771;48.048;7.682;2023-06-22T06:29:50;26.00;54.50
17307;DHT22;8771;48.048;7.682;2023-06-22T06:34:53;26.20;54.50
17307;DHT22;8771;48.048;7.682;2023-06-22T06:39:55;26.20;54.60
17307;DHT22;8771;48.048;7.682;2023-06-22T06:44:57;26.20;54.70
17307;DHT22;8771;48.048;7.682;2023-06-22T06:50:01;26.20;54.80
17307;DHT22;8771;48.048;7.682;2023-06-22T06:55:03;26.30;54.90
17307;DHT22;8771;48.048;7.682;2023-06-22T07:00:10;26.30;54.90
17307;DHT22;8771;48.048;7.682;2023-06-22T07:05:15;26.20;55.00
17307;DHT22;8771;48.048;7.682;2023-06-22T07:10:17;26.00;55.40
17307;DHT22;8771;48.048;7.682;2023-06-22T07:15:20;25.90;55.70
17307;DHT22;8771;48.048;7.682;2023-06-22T07:20:23;25.90;55.70
17307;DHT22;8771;48.048;7.682;2023-06-22T07:25:25;25.90;55.70
17307;DHT22;8771;48.048;7.682;2023-06-22T07:30:27;25.90;55.70
17307;DHT22;8771;48.048;7.682;2023-06-22T07:35:31;25.90;55.70
17307;DHT22;8771;48.048;7.682;2023-06-22T07:40:34;26.10;55.60
17307;DHT22;8771;48.048;7.682;2023-06-22T07:45:38;26.20;55.60
17307;DHT22;8771;48.048;7.682;2023-06-22T07:50:43;26.20;55.50
17307;DHT22;8771;48.048;7.682;2023-06-22T07:55:45;26.40;55.60
17307;DHT22;8771;48.048;7.682;2023-06-22T08:00:47;26.40;55.50
17307;DHT22;8771;48.048;7.682;2023-06-22T08:05:51;26.50;55.40
17307;DHT22;8771;48.048;7.682;2023-06-22T08:10:53;26.80;55.20
17307;DHT22;8771;48.048;7.682;2023-06-22T08:15:55;27.10;55.10
17307;DHT22;8771;48.048;7.682;2023-06-22T08:20:58;27.10;54.90
17307;DHT22;8771;48.048;7.682;2023-06-22T08:26:00;27.20;54.90
17307;DHT22;8771;48.048;7.682;2023-06-22T08:31:02;27.40;54.40
17307;DHT22;8771;48.048;7.682;2023-06-22T08:36:06;27.50;54.80
17307;DHT22;8771;48.048;7.682;2023-06-22T08:41:08;27.80;54.70
17307;DHT22;8771;48.048;7.682;2023-06-22T08:46:10;27.90;54.50
17307;DHT22;8771;48.048;7.682;2023-06-22T08:51:14;28.00;54.50
17307;DHT22;8771;48.048;7.682;2023-06-22T08:56:16;28.20;54.50
17307;DHT22;8771;48.048;7.682;2023-06-22T09:01:18;28.40;54.40
17307;DHT22;8771;48.048;7.682;2023-06-22T09:06:21;28.70;54.20
17307;DHT22;8771;48.048;7.682;2023-06-22T09:11:24;28.80;54.20
17307;DHT22;8771;48.048;7.682;2023-06-22T09:16:26;28.60;54.30
17307;DHT22;8771;48.048;7.682;2023-06-22T09:21:30;28.70;54.50
17307;DHT22;8771;48.048;7.682;2023-06-22T09:26:32;28.70;54.50
17307;DHT22;8771;48.048;7.682;2023-06-22T09:31:34;28.60;54.60
17307;DHT22;8771;48.048;7.682;2023-06-22T09:36:37;28.70;54.60
17307;DHT22;8771;48.048;7.682;2023-06-22T09:41:40;28.90;54.50
17307;DHT22;8771;48.048;7.682;2023-06-22T09:46:42;28.80;54.50
17307;DHT22;8771;48.048;7.682;2023-06-22T09:51:45;28.80;54.60
17307;DHT22;8771;48.048;7.682;2023-06-22T09:56:47;29.00;54.50
17307;DHT22;8771;48.048;7.682;2023-06-22T10:01:49;29.20;54.30
17307;DHT22;8771;48.048;7.682;2023-06-22T10:06:52;29.50;54.00
17307;DHT22;8771;48.048;7.682;2023-06-22T10:11:55;29.90;53.70
17307;DHT22;8771;48.048;7.682;2023-06-22T10:16:56;30.10;53.50
17307;DHT22;8771;48.048;7.682;2023-06-22T10:22:00;30.40;53.40
17307;DHT22;8771;48.048;7.682;2023-06-22T10:27:02;30.70;53.20
17307;DHT22;8771;48.048;7.682;2023-06-22T10:32:05;31.00;53.10
17307;DHT22;8771;48.048;7.682;2023-06-22T10:37:08;31.00;53.10
17307;DHT22;8771;48.048;7.682;2023-06-22T10:42:11;31.20;53.10
17307;DHT22;8771;48.048;7.682;2023-06-22T10:47:13;31.40;53.00
17307;DHT22;8771;48.048;7.682;2023-06-22T10:52:17;31.60;53.00
17307;DHT22;8771;48.048;7.682;2023-06-22T10:57:19;31.70;53.00
17307;DHT22;8771;48.048;7.682;2023-06-22T11:02:23;31.90;52.90
17307;DHT22;8771;48.048;7.682;2023-06-22T11:07:26;32.10;52.70
17307;DHT22;8771;48.048;7.682;2023-06-22T11:12:29;32.30;52.70
17307;DHT22;8771;48.048;7.682;2023-06-22T11:17:31;32.40;52.60
17307;DHT22;8771;48.048;7.682;2023-06-22T11:22:34;32.60;52.60
17307;DHT22;8771;48.048;7.682;2023-06-22T11:27:36;32.70;52.60
17307;DHT22;8771;48.048;7.682;2023-06-22T11:32:38;32.80;52.50
17307;DHT22;8771;48.048;7.682;2023-06-22T11:37:41;32.90;52.70
17307;DHT22;8771;48.048;7.682;2023-06-22T11:42:44;32.90;52.60
17307;DHT22;8771;48.048;7.682;2023-06-22T11:47:46;33.10;52.60
17307;DHT22;8771;48.048;7.682;2023-06-22T11:52:49;33.10;52.60
17307;DHT22;8771;48.048;7.682;2023-06-22T11:57:54;33.10;52.80
17307;DHT22;8771;48.048;7.682;2023-06-22T12:02:56;33.10;52.90
17307;DHT22;8771;48.048;7.682;2023-06-22T12:08:00;33.10;52.90
17307;DHT22;8771;48.048;7.682;2023-06-22T12:13:02;33.10;52.90
17307;DHT22;8771;48.048;7.682;2023-06-22T12:18:04;33.10;53.00
17307;DHT22;8771;48.048;7.682;2023-06-22T12:23:07;33.00;53.10
17307;DHT22;8771;48.048;7.682;2023-06-22T12:28:09;33.00;53.10
17307;DHT22;8771;48.048;7.682;2023-06-22T12:33:11;32.90;53.20
17307;DHT22;8771;48.048;7.682;2023-06-22T12:38:17;32.70;53.30
17307;DHT22;8771;48.048;7.682;2023-06-22T12:43:18;32.60;53.40
17307;DHT22;8771;48.048;7.682;2023-06-22T12:48:21;32.50;53.60
17307;DHT22;8771;48.048;7.682;2023-06-22T12:53:25;32.30;53.60
17307;DHT22;8771;48.048;7.682;2023-06-22T12:58:28;32.20;53.80
17307;DHT22;8771;48.048;7.682;2023-06-22T13:03:29;32.10;53.80
17307;DHT22;8771;48.048;7.682;2023-06-22T13:08:33;32.00;53.90
17307;DHT22;8771;48.048;7.682;2023-06-22T13:13:35;31.90;53.90
17307;DHT22;8771;48.048;7.682;2023-06-22T13:18:37;31.80;53.90
17307;DHT22;8771;48.048;7.682;2023-06-22T13:23:40;31.80;53.80
17307;DHT22;8771;48.048;7.682;2023-06-22T13:28:42;31.90;53.70
17307;DHT22;8771;48.048;7.682;2023-06-22T13:33:44;32.00;53.50
17307;DHT22;8771;48.048;7.682;2023-06-22T13:38:49;32.20;53.40
17307;DHT22;8771;48.048;7.682;2023-06-22T13:43:51;32.40;53.20
17307;DHT22;8771;48.048;7.682;2023-06-22T13:48:53;32.50;53.00
17307;DHT22;8771;48.048;7.682;2023-06-22T13:53:56;32.60;53.00
17307;DHT22;8771;48.048;7.682;2023-06-22T13:58:58;32.60;52.90
17307;DHT22;8771;48.048;7.682;2023-06-22T14:04:00;32.60;52.80
17307;DHT22;8771;48.048;7.682;2023-06-22T14:09:04;32.70;52.90
17307;DHT22;8771;48.048;7.682;2023-06-22T14:14:06;32.80;52.70
17307;DHT22;8771;48.048;7.682;2023-06-22T14:19:08;32.80;52.70
17307;DHT22;8771;48.048;7.682;2023-06-22T14:24:11;32.70;52.80
17307;DHT22;8771;48.048;7.682;2023-06-22T14:29:13;32.60;53.00
17307;DHT22;8771;48.048;7.682;2023-06-22T14:34:15;32.60;52.90
17307;DHT22;8771;48.048;7.682;2023-06-22T14:39:19;32.70;52.80
17307;DHT22;8771;48.048;7.682;2023-06-22T14:44:22;32.80;52.60
17307;DHT22;8771;48.048;7.682;2023-06-22T14:49:24;33.00;52.50
17307;DHT22;8771;48.048;7.682;2023-06-22T14:54:27;33.10;52.30
17307;DHT22;8771;48.048;7.682;2023-06-22T14:59:29;33.10;52.30
17307;DHT22;8771;48.048;7.682;2023-06-22T15:04:31;33.10;52.30
17307;DHT22;8771;48.048;7.682;2023-06-22T15:09:36;33.30;52.30
17307;DHT22;8771;48.048;7.682;2023-06-22T15:14:41;33.50;52.10
17307;DHT22;8771;48.048;7.682;2023-06-22T15:19:43;33.70;51.80
17307;DHT22;8771;48.048;7.682;2023-06-22T15:24:47;33.70;51.80
17307;DHT22;8771;48.048;7.682;2023-06-22T15:29:49;33.60;51.80
17307;DHT22;8771;48.048;7.682;2023-06-22T15:34:51;33.60;51.90
17307;DHT22;8771;48.048;7.682;2023-06-22T15:39:55;33.60;52.00
17307;DHT22;8771;48.048;7.682;2023-06-22T15:44:59;33.50;52.10
17307;DHT22;8771;48.048;7.682;2023-06-22T15:50:01;33.30;52.30
17307;DHT22;8771;48.048;7.682;2023-06-22T15:55:05;33.10;52.40
17307;DHT22;8771;48.048;7.682;2023-06-22T16:00:09;33.00;52.60
17307;DHT22;8771;48.048;7.682;2023-06-22T16:05:14;32.90;52.70
17307;DHT22;8771;48.048;7.682;2023-06-22T16:10:17;32.80;52.60
17307;DHT22;8771;48.048;7.682;2023-06-22T16:15:20;32.90;52.50
17307;DHT22;8771;48.048;7.682;2023-06-22T16:20:22;32.90;52.40
17307;DHT22;8771;48.048;7.682;2023-06-22T16:25:25;32.80;52.50
17307;DHT22;8771;48.048;7.682;2023-06-22T16:30:27;32.60;52.60
17307;DHT22;8771;48.048;7.682;2023-06-22T16:35:29;32.40;52.70
17307;DHT22;8771;48.048;7.682;2023-06-22T16:40:34;32.20;53.00
17307;DHT22;8771;48.048;7.682;2023-06-22T16:45:36;31.80;53.20
17307;DHT22;8771;48.048;7.682;2023-06-22T16:50:38;31.60;53.30
17307;DHT22;8771;48.048;7.682;2023-06-22T16:55:42;31.50;53.40
17307;DHT22;8771;48.048;7.682;2023-06-22T17:00:45;31.40;53.40
17307;DHT22;8771;48.048;7.682;2023-06-22T17:05:47;31.30;53.30
17307;DHT22;8771;48.048;7.682;2023-06-22T17:10:51;31.30;53.30
17307;DHT22;8771;48.048;7.682;2023-06-22T17:15:55;31.10;53.40
17307;DHT22;8771;48.048;7.682;2023-06-22T17:20:57;31.00;53.40
17307;DHT22;8771;48.048;7.682;2023-06-22T17:26:05;30.90;53.40
17307;DHT22;8771;48.048;7.682;2023-06-22T17:31:08;30.80;53.50
17307;DHT22;8771;48.048;7.682;2023-06-22T17:36:12;30.70;53.50
17307;DHT22;8771;48.048;7.682;2023-06-22T17:41:16;30.60;53.50
17307;DHT22;8771;48.048;7.682;2023-06-22T17:46:17;30.50;53.60
17307;DHT22;8771;48.048;7.682;2023-06-22T17:51:19;30.40;53.60
17307;DHT22;8771;48.048;7.682;2023-06-22T17:56:24;30.20;53.60
17307;DHT22;8771;48.048;7.682;2023-06-22T18:01:31;30.10;53.60
17307;DHT22;8771;48.048;7.682;2023-06-22T18:06:38;30.00;53.70
17307;DHT22;8771;48.048;7.682;2023-06-22T18:11:43;29.70;53.80
17307;DHT22;8771;48.048;7.682;2023-06-22T18:16:49;29.10;54.10
17307;DHT22;8771;48.048;7.682;2023-06-22T18:21:51;28.50;54.60
17307;DHT22;8771;48.048;7.682;2023-06-22T18:26:55;27.90;55.10
17307;DHT22;8771;48.048;7.682;2023-06-22T18:31:57;27.40;55.40
17307;DHT22;8771;48.048;7.682;2023-06-22T18:37:01;26.90;55.70
17307;DHT22;8771;48.048;7.682;2023-06-22T18:42:09;26.60;55.90
17307;DHT22;8771;48.048;7.682;2023-06-22T18:47:11;26.20;56.00
17307;DHT22;8771;48.048;7.682;2023-06-22T18:52:15;26.00;56.20
17307;DHT22;8771;48.048;7.682;2023-06-22T18:57:23;25.60;56.30
17307;DHT22;8771;48.048;7.682;2023-06-22T19:02:42;25.30;56.30
17307;DHT22;8771;48.048;7.682;2023-06-22T19:07:58;25.10;56.40
17307;DHT22;8771;48.048;7.682;2023-06-22T19:13:19;24.80;56.50
17307;DHT22;8771;48.048;7.682;2023-06-22T19:18:23;24.60;56.60
17307;DHT22;8771;48.048;7.682;2023-06-22T19:23:29;24.40;56.70
17307;DHT22;8771;48.048;7.682;2023-06-22T19:28:33;24.20;56.80
17307;DHT22;8771;48.048;7.682;2023-06-22T19:33:36;24.00;56.80
17307;DHT22;8771;48.048;7.682;2023-06-22T19:38:39;23.90;56.90
17307;DHT22;8771;48.048;7.682;2023-06-22T19:43:42;23.70;57.00
17307;DHT22;8771;48.048;7.682;2023-06-22T19:48:46;23.60;57.10
17307;DHT22;8771;48.048;7.682;2023-06-22T19:53:48;23.50;57.10
17307;DHT22;8771;48.048;7.682;2023-06-22T19:58:51;23.50;57.10
17307;DHT22;8771;48.048;7.682;2023-06-22T20:03:55;23.50;57.00
17307;DHT22;8771;48.048;7.682;2023-06-22T20:08:58;23.40;57.00
17307;DHT22;8771;48.048;7.682;2023-06-22T20:14:06;23.40;57.00
17307;DHT22;8771;48.048;7.682;2023-06-22T20:19:09;23.30;57.10
17307;DHT22;8771;48.048;7.682;2023-06-22T20:24:12;23.30;57.10
17307;DHT22;8771;48.048;7.682;2023-06-22T20:29:25;23.30;57.10
17307;DHT22;8771;48.048;7.682;2023-06-22T20:34:32;23.20;57.20
17307;DHT22;8771;48.048;7.682;2023-06-22T20:39:34;23.10;57.20
17307;DHT22;8771;48.048;7.682;2023-06-22T20:44:38;23.10;57.90
17307;DHT22;8771;48.048;7.682;2023-06-22T20:49:40;23.00;57.30
17307;DHT22;8771;48.048;7.682;2023-06-22T20:54:42;22.90;57.40
17307;DHT22;8771;48.048;7.682;2023-06-22T20:59:45;22.80;57.50
17307;DHT22;8771;48.048;7.682;2023-06-22T21:04:47;22.80;57.50
17307;DHT22;8771;48.048;7.682;2023-06-22T21:09:53;22.70;57.50
17307;DHT22;8771;48.048;7.682;2023-06-22T21:14:57;22.70;57.50
17307;DHT22;8771;48.048;7.682;2023-06-22T21:19:59;22.70;57.50
17307;DHT22;8771;48.048;7.682;2023-06-22T21:25:06;22.60;57.50
17307;DHT22;8771;48.048;7.682;2023-06-22T21:30:11;22.50;57.60
17307;DHT22;8771;48.048;7.682;2023-06-22T21:35:13;22.50;57.60
17307;DHT22;8771;48.048;7.682;2023-06-22T21:40:15;22.50;57.60
17307;DHT22;8771;48.048;7.682;2023-06-22T21:45:18;22.40;57.70
17307;DHT22;8771;48.048;7.682;2023-06-22T21:50:20;22.30;57.70
17307;DHT22;8771;48.048;7.682;2023-06-22T21:55:22;22.20;57.80
17307;DHT22;8771;48.048;7.682;2023-06-22T22:00:26;22.20;57.80
17307;DHT22;8771;48.048;7.682;2023-06-22T22:05:28;22.20;57.80
17307;DHT22;8771;48.048;7.682;2023-06-22T22:10:30;22.20;57.80
17307;DHT22;8771;48.048;7.682;2023-06-22T22:15:39;22.20;57.80
17307;DHT22;8771;48.048;7.682;2023-06-22T22:20:41;22.20;57.70
17307;DHT22;8771;48.048;7.682;2023-06-22T22:25:43;22.20;57.70
17307;DHT22;8771;48.048;7.682;2023-06-22T22:30:47;22.20;57.80
17307;DHT22;8771;48.048;7.682;2023-06-22T22:35:49;22.20;57.80
17307;DHT22;8771;48.048;7.682;2023-06-22T22:40:51;22.20;57.70
17307;DHT22;8771;48.048;7.682;2023-06-22T22:45:54;22.20;57.80
17307;DHT22;8771;48.048;7.682;2023-06-22T22:50:58;22.10;57.70
17307;DHT22;8771;48.048;7.682;2023-06-22T22:56:00;22.10;57.80
17307;DHT22;8771;48.048;7.682;2023-06-22T23:01:03;22.10;57.80
17307;DHT22;8771;48.048;7.682;2023-06-22T23:06:05;22.20;57.90
17307;DHT22;8771;48.048;7.682;2023-06-22T23:11:08;22.20;57.90
17307;DHT22;8771;48.048;7.682;2023-06-22T23:16:11;22.10;57.90
17307;DHT22;8771;48.048;7.682;2023-06-22T23:21:13;22.10;58.00
17307;DHT22;8771;48.048;7.682;2023-06-22T23:26:15;22.00;58.10
17307;DHT22;8771;48.048;7.682;2023-06-22T23:31:19;22.00;58.10
17307;DHT22;8771;48.048;7.682;2023-06-22T23:36:21;22.00;58.10
17307;DHT22;8771;48.048;7.682;2023-06-22T23:41:23;22.00;58.10
17307;DHT22;8771;48.048;7.682;2023-06-22T23:46:27;22.00;58.20
17307;DHT22;8771;48.048;7.682;2023-06-22T23:51:31;22.00;58.20
17307;DHT22;8771;48.048;7.682;2023-06-22T23:56:33;22.00;58.20
